createdAt,value
2017-11-08T00:00:56.408Z,0
2017-11-08T00:02:05.615Z,0
2017-11-08T00:03:14.489Z,0
2017-11-08T00:04:23.708Z,0
2017-11-08T00:05:32.243Z,0
2017-11-08T00:06:40.781Z,0
2017-11-08T00:07:49.321Z,0
2017-11-08T00:08:57.908Z,0
2017-11-08T00:10:07.456Z,0
2017-11-08T00:11:16.337Z,0
2017-11-08T00:12:24.887Z,0
2017-11-08T00:13:33.415Z,0
2017-11-08T00:14:42.290Z,0
2017-11-08T00:15:50.827Z,0
2017-11-08T00:17:00.033Z,0
2017-11-08T00:18:08.568Z,0
2017-11-08T00:19:17.104Z,0
2017-11-08T00:20:25.973Z,0
2017-11-08T00:21:34.844Z,0
2017-11-08T00:22:43.738Z,0
2017-11-08T00:23:52.610Z,0
2017-11-08T00:25:01.481Z,0
2017-11-08T00:26:10.362Z,0
2017-11-08T00:27:19.568Z,0
2017-11-08T00:28:28.777Z,0
2017-11-08T00:29:37.982Z,0
2017-11-08T00:30:47.241Z,0
2017-11-08T00:31:56.119Z,0
2017-11-08T00:33:05.678Z,0
2017-11-08T00:34:14.548Z,0
2017-11-08T00:35:23.418Z,0
2017-11-08T00:36:32.629Z,0
2017-11-08T00:37:41.498Z,0
2017-11-08T00:38:50.375Z,0
2017-11-08T00:39:58.915Z,0
2017-11-08T00:41:07.784Z,0
2017-11-08T00:42:16.995Z,0
2017-11-08T00:43:25.869Z,0
2017-11-08T00:44:34.409Z,0
2017-11-08T00:45:43.280Z,0
2017-11-08T00:46:52.498Z,0
2017-11-08T00:48:01.455Z,0
2017-11-08T00:49:09.993Z,0
2017-11-08T00:50:18.866Z,0
2017-11-08T00:51:27.749Z,0
2017-11-08T00:52:36.628Z,0
2017-11-08T00:53:45.172Z,0
2017-11-08T00:54:54.040Z,0
2017-11-08T00:56:02.916Z,0
2017-11-08T00:57:11.792Z,0
2017-11-08T00:58:21.349Z,0
2017-11-08T00:59:30.218Z,0
2017-11-08T01:00:39.096Z,0
2017-11-08T01:01:47.965Z,0
2017-11-08T01:02:57.178Z,0
2017-11-08T01:04:06.053Z,0
2017-11-08T01:05:14.638Z,0
2017-11-08T01:06:23.512Z,0
2017-11-08T01:07:32.050Z,0
2017-11-08T01:08:40.924Z,0
2017-11-08T01:09:49.794Z,0
2017-11-08T01:10:58.672Z,0
2017-11-08T01:12:07.541Z,0
2017-11-08T01:13:16.079Z,0
2017-11-08T01:14:24.961Z,0
2017-11-08T01:15:33.490Z,0
2017-11-08T01:16:42.363Z,0
2017-11-08T01:17:51.233Z,0
2017-11-08T01:19:00.107Z,0
2017-11-08T01:20:09.313Z,0
2017-11-08T01:21:17.851Z,0
2017-11-08T01:22:26.775Z,0
2017-11-08T01:23:35.994Z,0
2017-11-08T01:24:44.529Z,0
2017-11-08T01:25:53.738Z,0
2017-11-08T01:27:02.956Z,0
2017-11-08T01:28:11.493Z,0
2017-11-08T01:29:20.370Z,0
2017-11-08T01:30:29.243Z,0
2017-11-08T01:31:38.114Z,0
2017-11-08T01:32:46.652Z,0
2017-11-08T01:33:55.527Z,0
2017-11-08T01:35:04.066Z,0
2017-11-08T01:36:12.944Z,0
2017-11-08T01:37:21.484Z,0
2017-11-08T01:38:30.362Z,0
2017-11-08T01:39:39.910Z,0
2017-11-08T01:40:49.450Z,0
2017-11-08T01:41:58.662Z,0
2017-11-08T01:43:07.542Z,0
2017-11-08T01:44:16.079Z,0
2017-11-08T01:45:25.009Z,0
2017-11-08T01:46:34.221Z,0
2017-11-08T01:47:43.097Z,0
2017-11-08T01:48:52.304Z,0
2017-11-08T01:50:00.840Z,0
2017-11-08T01:51:09.721Z,0
2017-11-08T01:52:18.931Z,0
2017-11-08T01:53:28.151Z,0
2017-11-08T01:54:37.022Z,0
2017-11-08T01:55:45.892Z,0
2017-11-08T01:56:54.767Z,0
2017-11-08T01:58:03.640Z,0
2017-11-08T01:59:12.190Z,0
2017-11-08T02:00:21.065Z,0
2017-11-08T02:01:29.603Z,0
2017-11-08T02:02:38.811Z,0
2017-11-08T02:03:48.028Z,0
2017-11-08T02:04:56.903Z,0
2017-11-08T02:06:05.641Z,0
2017-11-08T02:07:14.852Z,0
2017-11-08T02:08:23.439Z,0
2017-11-08T02:09:31.972Z,0
2017-11-08T02:10:40.846Z,0
2017-11-08T02:11:49.391Z,0
2017-11-08T02:12:58.966Z,0
2017-11-08T02:14:07.513Z,0
2017-11-08T02:15:16.740Z,0
2017-11-08T02:16:25.612Z,0
2017-11-08T02:17:34.485Z,0
2017-11-08T02:18:43.365Z,0
2017-11-08T02:19:52.237Z,0
2017-11-08T02:21:01.454Z,0
2017-11-08T02:22:09.994Z,0
2017-11-08T02:23:19.205Z,0
2017-11-08T02:24:27.745Z,0
2017-11-08T02:25:37.009Z,0
2017-11-08T02:26:46.591Z,0
2017-11-08T02:27:55.801Z,0
2017-11-08T02:29:04.339Z,0
2017-11-08T02:30:12.879Z,0
2017-11-08T02:31:22.083Z,0
2017-11-08T02:32:30.955Z,0
2017-11-08T02:33:39.828Z,0
2017-11-08T02:34:48.729Z,0
2017-11-08T02:35:57.269Z,0
2017-11-08T02:37:05.805Z,0
2017-11-08T02:38:14.676Z,0
2017-11-08T02:39:23.553Z,0
2017-11-08T02:40:32.425Z,0
2017-11-08T02:41:41.301Z,0
2017-11-08T02:42:49.887Z,0
2017-11-08T02:43:59.110Z,0
2017-11-08T02:45:07.986Z,0
2017-11-08T02:46:17.200Z,0
2017-11-08T02:47:25.737Z,0
2017-11-08T02:48:34.946Z,0
2017-11-08T02:49:44.155Z,0
2017-11-08T02:50:52.692Z,0
2017-11-08T02:52:01.899Z,0
2017-11-08T02:53:10.477Z,0
2017-11-08T02:54:18.981Z,0
2017-11-08T02:55:27.855Z,0
2017-11-08T02:56:36.390Z,0
2017-11-08T02:57:44.926Z,0
2017-11-08T02:58:53.802Z,0
2017-11-08T03:00:03.069Z,0
2017-11-08T03:01:11.939Z,0
2017-11-08T03:02:20.479Z,0
2017-11-08T03:03:29.688Z,0
2017-11-08T03:04:38.902Z,0
2017-11-08T03:05:47.777Z,0
2017-11-08T03:06:56.313Z,0
2017-11-08T03:08:04.853Z,0
2017-11-08T03:09:14.060Z,0
2017-11-08T03:10:22.931Z,0
2017-11-08T03:11:32.139Z,0
2017-11-08T03:12:40.678Z,0
2017-11-08T03:13:49.558Z,0
2017-11-08T03:14:58.433Z,0
2017-11-08T03:16:07.641Z,0
2017-11-08T03:17:16.564Z,0
2017-11-08T03:18:25.104Z,0
2017-11-08T03:19:33.636Z,0
2017-11-08T03:20:42.171Z,0
2017-11-08T03:21:50.708Z,0
2017-11-08T03:22:59.584Z,0
2017-11-08T03:24:08.463Z,0
2017-11-08T03:25:17.331Z,0
2017-11-08T03:26:25.871Z,0
2017-11-08T03:27:34.743Z,0
2017-11-08T03:28:43.612Z,0
2017-11-08T03:29:52.822Z,0
2017-11-08T03:31:02.036Z,0
2017-11-08T03:32:10.912Z,0
2017-11-08T03:33:20.120Z,0
2017-11-08T03:34:29.047Z,0
2017-11-08T03:35:37.915Z,0
2017-11-08T03:36:47.128Z,0
2017-11-08T03:37:56.001Z,0
2017-11-08T03:39:05.213Z,0
2017-11-08T03:40:14.090Z,0
2017-11-08T03:41:22.966Z,0
2017-11-08T03:42:31.837Z,0
2017-11-08T03:43:40.719Z,0
2017-11-08T03:44:49.588Z,0
2017-11-08T03:45:58.799Z,0
2017-11-08T03:47:07.339Z,0
2017-11-08T03:48:16.208Z,0
2017-11-08T03:49:25.416Z,0
2017-11-08T03:50:34.291Z,0
2017-11-08T03:51:42.830Z,0
2017-11-08T03:52:51.709Z,0
2017-11-08T03:54:00.245Z,0
2017-11-08T03:55:09.120Z,0
2017-11-08T03:56:18.662Z,0
2017-11-08T03:57:28.216Z,0
2017-11-08T03:58:37.106Z,0
2017-11-08T03:59:45.977Z,0
2017-11-08T04:00:54.849Z,0
2017-11-08T04:02:04.065Z,0
2017-11-08T04:03:12.991Z,0
2017-11-08T04:04:21.863Z,0
2017-11-08T04:05:31.084Z,0
2017-11-08T04:06:39.958Z,0
2017-11-08T04:07:48.498Z,0
2017-11-08T04:08:57.384Z,0
2017-11-08T04:10:06.268Z,0
2017-11-08T04:11:15.474Z,0
2017-11-08T04:12:24.012Z,0
2017-11-08T04:13:32.886Z,0
2017-11-08T04:14:42.434Z,0
2017-11-08T04:15:51.316Z,0
2017-11-08T04:17:00.192Z,0
2017-11-08T04:18:09.749Z,0
2017-11-08T04:19:18.958Z,0
2017-11-08T04:20:28.168Z,0
2017-11-08T04:21:36.705Z,0
2017-11-08T04:22:46.289Z,0
2017-11-08T04:23:54.807Z,0
2017-11-08T04:25:03.684Z,0
2017-11-08T04:26:12.560Z,0
2017-11-08T04:27:21.102Z,0
2017-11-08T04:28:29.640Z,0
2017-11-08T04:29:38.854Z,0
2017-11-08T04:30:48.077Z,0
2017-11-08T04:31:57.619Z,0
2017-11-08T04:33:07.333Z,0
2017-11-08T04:34:16.205Z,0
2017-11-08T04:35:24.745Z,0
2017-11-08T04:36:34.635Z,0
2017-11-08T04:37:43.223Z,0
2017-11-08T04:38:52.436Z,0
2017-11-08T04:40:01.648Z,0
2017-11-08T04:41:10.886Z,0
2017-11-08T04:42:19.761Z,0
2017-11-08T04:43:28.645Z,0
2017-11-08T04:44:37.516Z,0
2017-11-08T04:45:46.051Z,0
2017-11-08T04:46:54.925Z,0
2017-11-08T04:48:04.139Z,0
2017-11-08T04:49:12.675Z,0
2017-11-08T04:50:21.905Z,0
2017-11-08T04:51:31.132Z,0
2017-11-08T04:52:39.670Z,0
2017-11-08T04:53:48.206Z,0
2017-11-08T04:54:57.127Z,0
2017-11-08T04:56:06.006Z,0
2017-11-08T04:57:15.554Z,0
2017-11-08T04:58:24.423Z,0
2017-11-08T04:59:33.297Z,0
2017-11-08T05:00:41.835Z,0
2017-11-08T05:01:50.709Z,0
2017-11-08T05:02:59.581Z,0
2017-11-08T05:04:08.119Z,0
2017-11-08T05:05:16.678Z,0
2017-11-08T05:06:26.221Z,0
2017-11-08T05:07:34.756Z,0
2017-11-08T05:08:43.302Z,0
2017-11-08T05:09:51.841Z,0
2017-11-08T05:11:00.377Z,0
2017-11-08T05:12:08.964Z,0
2017-11-08T05:13:17.505Z,0
2017-11-08T05:14:26.046Z,0
2017-11-08T05:15:35.263Z,0
2017-11-08T05:16:45.144Z,0
2017-11-08T05:17:55.028Z,0
2017-11-08T05:19:04.249Z,0
2017-11-08T05:20:13.123Z,0
2017-11-08T05:21:22.334Z,0
2017-11-08T05:22:31.545Z,0
2017-11-08T05:23:40.758Z,0
2017-11-08T05:24:49.634Z,0
2017-11-08T05:25:58.175Z,0
2017-11-08T05:27:07.050Z,0
2017-11-08T05:28:16.260Z,0
2017-11-08T05:29:25.181Z,0
2017-11-08T05:30:33.717Z,0
2017-11-08T05:31:42.592Z,0
2017-11-08T05:32:51.128Z,0
2017-11-08T05:34:00.337Z,0
2017-11-08T05:35:09.214Z,0
2017-11-08T05:36:17.750Z,0
2017-11-08T05:37:26.286Z,0
2017-11-08T05:38:34.825Z,0
2017-11-08T05:39:44.039Z,0
2017-11-08T05:40:52.575Z,0
2017-11-08T05:42:01.114Z,0
2017-11-08T05:43:09.988Z,0
2017-11-08T05:44:18.863Z,0
2017-11-08T05:45:27.738Z,0
2017-11-08T05:46:36.660Z,0
2017-11-08T05:47:45.535Z,0
2017-11-08T05:48:54.068Z,0
2017-11-08T05:50:02.607Z,0
2017-11-08T05:51:11.478Z,0
2017-11-08T05:52:20.353Z,0
2017-11-08T05:53:29.567Z,0
2017-11-08T05:54:38.441Z,0
2017-11-08T05:55:47.312Z,0
2017-11-08T05:56:56.185Z,0
2017-11-08T05:58:05.062Z,0
2017-11-08T05:59:13.940Z,0
2017-11-08T06:00:22.812Z,0
2017-11-08T06:01:32.016Z,0
2017-11-08T06:02:40.556Z,0
2017-11-08T06:03:49.436Z,0
2017-11-08T06:04:57.976Z,0
2017-11-08T06:06:06.847Z,0
2017-11-08T06:07:15.717Z,0
2017-11-08T06:08:24.256Z,0
2017-11-08T06:09:33.816Z,0
2017-11-08T06:10:42.694Z,0
2017-11-08T06:11:51.565Z,0
2017-11-08T06:13:00.102Z,0
2017-11-08T06:14:08.640Z,0
2017-11-08T06:15:17.522Z,0
2017-11-08T06:16:26.392Z,4
2017-11-08T06:17:35.605Z,4
2017-11-08T06:18:44.144Z,4
2017-11-08T06:19:53.020Z,4
2017-11-08T06:21:01.914Z,4
2017-11-08T06:22:11.114Z,4
2017-11-08T06:23:20.319Z,8
2017-11-08T06:24:29.533Z,8
2017-11-08T06:25:38.745Z,8
2017-11-08T06:26:47.956Z,12
2017-11-08T06:27:57.166Z,12
2017-11-08T06:29:05.704Z,12
2017-11-08T06:30:14.913Z,20
2017-11-08T06:31:23.783Z,20
2017-11-08T06:32:32.659Z,24
2017-11-08T06:33:41.545Z,28
2017-11-08T06:34:50.419Z,28
2017-11-08T06:35:58.957Z,32
2017-11-08T06:37:07.495Z,32
2017-11-08T06:38:17.053Z,32
2017-11-08T06:39:26.261Z,40
2017-11-08T06:40:35.136Z,48
2017-11-08T06:41:44.035Z,52
2017-11-08T06:42:52.570Z,56
2017-11-08T06:44:01.452Z,68
2017-11-08T06:45:10.321Z,76
2017-11-08T06:46:19.197Z,72
2017-11-08T06:47:28.075Z,80
2017-11-08T06:48:36.956Z,88
2017-11-08T06:49:45.539Z,96
2017-11-08T06:50:54.749Z,104
2017-11-08T06:52:03.628Z,124
2017-11-08T06:53:12.504Z,140
2017-11-08T06:54:21.385Z,148
2017-11-08T06:55:30.607Z,172
2017-11-08T06:56:39.492Z,192
2017-11-08T06:57:48.363Z,228
2017-11-08T06:58:57.573Z,256
2017-11-08T07:00:06.117Z,292
2017-11-08T07:01:14.705Z,324
2017-11-08T07:02:23.242Z,360
2017-11-08T07:03:32.807Z,384
2017-11-08T07:04:42.024Z,428
2017-11-08T07:05:50.905Z,452
2017-11-08T07:06:59.777Z,480
2017-11-08T07:08:08.988Z,532
2017-11-08T07:09:17.861Z,544
2017-11-08T07:10:26.402Z,492
2017-11-08T07:11:35.612Z,448
2017-11-08T07:12:44.821Z,428
2017-11-08T07:13:54.392Z,448
2017-11-08T07:15:03.604Z,452
2017-11-08T07:16:12.815Z,420
2017-11-08T07:17:22.038Z,424
2017-11-08T07:18:30.971Z,496
2017-11-08T07:19:39.503Z,588
2017-11-08T07:20:48.377Z,700
2017-11-08T07:21:57.252Z,776
2017-11-08T07:23:06.124Z,832
2017-11-08T07:24:14.997Z,848
2017-11-08T07:25:24.214Z,876
2017-11-08T07:26:33.079Z,908
2017-11-08T07:27:41.951Z,960
2017-11-08T07:28:51.166Z,1060
2017-11-08T07:29:59.704Z,1148
2017-11-08T07:31:08.576Z,1216
2017-11-08T07:32:17.786Z,1312
2017-11-08T07:33:26.325Z,1412
2017-11-08T07:34:35.045Z,1540
2017-11-08T07:35:44.064Z,1708
2017-11-08T07:36:52.600Z,1832
2017-11-08T07:38:01.471Z,1940
2017-11-08T07:39:10.006Z,2004
2017-11-08T07:40:18.876Z,1992
2017-11-08T07:41:27.411Z,2004
2017-11-08T07:42:36.626Z,2060
2017-11-08T07:43:45.496Z,2052
2017-11-08T07:44:54.031Z,1852
2017-11-08T07:46:02.570Z,1724
2017-11-08T07:47:11.445Z,1528
2017-11-08T07:48:19.987Z,1292
2017-11-08T07:49:29.198Z,988
2017-11-08T07:50:37.743Z,780
2017-11-08T07:51:46.289Z,656
2017-11-08T07:52:55.495Z,564
2017-11-08T07:54:04.712Z,528
2017-11-08T07:55:13.248Z,544
2017-11-08T07:56:22.122Z,588
2017-11-08T07:57:31.003Z,612
2017-11-08T07:58:40.559Z,616
2017-11-08T07:59:49.465Z,632
2017-11-08T08:00:58.677Z,680
2017-11-08T08:02:07.563Z,724
2017-11-08T08:03:16.107Z,788
2017-11-08T08:04:24.636Z,844
2017-11-08T08:05:33.508Z,912
2017-11-08T08:06:42.386Z,944
2017-11-08T08:07:51.934Z,1008
2017-11-08T08:09:00.808Z,1108
2017-11-08T08:10:10.064Z,1212
2017-11-08T08:11:18.606Z,1248
2017-11-08T08:12:27.487Z,1188
2017-11-08T08:13:36.361Z,1120
2017-11-08T08:14:45.235Z,1076
2017-11-08T08:15:54.111Z,1096
2017-11-08T08:17:02.649Z,1136
2017-11-08T08:18:11.861Z,1128
2017-11-08T08:19:21.073Z,1148
2017-11-08T08:20:29.947Z,1160
2017-11-08T08:21:38.483Z,1156
2017-11-08T08:22:47.356Z,1224
2017-11-08T08:23:56.228Z,1352
2017-11-08T08:25:05.128Z,1392
2017-11-08T08:26:13.973Z,1280
2017-11-08T08:27:22.560Z,1172
2017-11-08T08:28:31.436Z,1100
2017-11-08T08:29:39.973Z,1092
2017-11-08T08:30:49.194Z,1092
2017-11-08T08:31:58.067Z,1148
2017-11-08T08:33:07.291Z,1232
2017-11-08T08:34:15.831Z,1256
2017-11-08T08:35:26.661Z,1536
2017-11-08T08:36:35.539Z,1632
2017-11-08T08:37:45.096Z,1564
2017-11-08T08:38:54.880Z,1484
2017-11-08T08:40:04.101Z,1452
2017-11-08T08:41:12.974Z,1440
2017-11-08T08:42:21.847Z,1484
2017-11-08T08:43:30.385Z,1488
2017-11-08T08:44:38.924Z,1592
2017-11-08T08:45:48.151Z,1680
2017-11-08T08:46:57.370Z,1800
2017-11-08T08:48:06.258Z,1864
2017-11-08T08:49:14.794Z,1960
2017-11-08T08:50:23.344Z,2120
2017-11-08T08:51:32.583Z,2304
2017-11-08T08:52:41.814Z,2536
2017-11-08T08:53:50.334Z,2752
2017-11-08T08:54:59.545Z,2872
2017-11-08T08:56:08.135Z,2788
2017-11-08T08:57:16.676Z,2688
2017-11-08T08:58:25.216Z,2652
2017-11-08T08:59:33.898Z,2596
2017-11-08T09:00:42.442Z,2460
2017-11-08T09:01:51.770Z,2224
2017-11-08T09:03:00.655Z,2012
2017-11-08T09:04:09.538Z,1872
2017-11-08T09:05:18.757Z,1796
2017-11-08T09:06:27.632Z,1748
2017-11-08T09:07:36.838Z,1752
2017-11-08T09:08:45.379Z,1748
2017-11-08T09:09:54.597Z,1744
2017-11-08T09:11:03.130Z,1820
2017-11-08T09:12:11.667Z,1992
2017-11-08T09:13:20.204Z,2188
2017-11-08T09:14:28.744Z,2360
2017-11-08T09:15:37.621Z,2500
2017-11-08T09:16:46.165Z,2664
2017-11-08T09:17:55.036Z,2780
2017-11-08T09:19:03.965Z,2736
2017-11-08T09:20:12.840Z,2596
2017-11-08T09:21:21.739Z,2488
2017-11-08T09:22:31.342Z,2412
2017-11-08T09:26:57.746Z,2404
2017-11-08T09:28:06.626Z,2340
2017-11-08T09:29:15.167Z,2272
2017-11-08T09:30:23.708Z,2212
2017-11-08T09:31:32.595Z,2164
2017-11-08T09:32:41.461Z,2148
2017-11-08T09:33:50.344Z,2204
2017-11-08T09:34:59.219Z,2248
2017-11-08T09:36:08.443Z,2200
2017-11-08T09:37:17.772Z,2200
2017-11-08T09:38:26.664Z,2152
2017-11-08T09:39:35.882Z,2152
2017-11-08T09:40:44.420Z,2332
2017-11-08T09:41:52.966Z,2416
2017-11-08T09:43:01.510Z,2332
2017-11-08T09:44:10.052Z,2292
2017-11-08T09:45:18.596Z,2424
2017-11-08T09:46:27.474Z,2500
2017-11-08T09:47:36.689Z,2476
2017-11-08T09:48:45.227Z,2372
2017-11-08T09:49:54.105Z,2268
2017-11-08T09:51:02.984Z,2204
2017-11-08T09:52:12.203Z,2168
2017-11-08T09:53:21.081Z,2148
2017-11-08T09:54:29.620Z,2092
2017-11-08T09:55:38.499Z,2032
2017-11-08T09:56:47.400Z,2040
2017-11-08T09:57:55.927Z,2040
2017-11-08T09:59:04.828Z,2084
2017-11-08T10:00:13.368Z,2024
2017-11-08T10:01:21.938Z,2052
2017-11-08T10:02:30.790Z,2172
2017-11-08T10:03:39.328Z,2168
2017-11-08T10:04:48.418Z,2120
2017-11-08T10:05:57.290Z,2064
2017-11-08T10:07:05.866Z,2140
2017-11-08T10:08:15.080Z,2260
2017-11-08T10:09:24.289Z,2276
2017-11-08T10:10:33.189Z,2336
2017-11-08T10:11:41.765Z,2584
2017-11-08T10:12:50.267Z,2848
2017-11-08T10:13:58.823Z,3080
2017-11-08T10:15:07.352Z,3096
2017-11-08T10:16:16.259Z,2976
2017-11-08T10:17:25.479Z,2940
2017-11-08T10:18:34.691Z,2948
2017-11-08T10:19:43.567Z,3100
2017-11-08T10:20:52.824Z,3232
2017-11-08T10:22:02.066Z,3556
2017-11-08T10:23:11.277Z,3904
2017-11-08T10:24:20.158Z,4088
2017-11-08T10:25:29.033Z,3996
2017-11-08T10:26:37.575Z,3872
2017-11-08T10:27:46.118Z,3756
2017-11-08T10:28:55.327Z,3820
2017-11-08T10:30:03.872Z,3864
2017-11-08T10:31:13.085Z,3956
2017-11-08T10:32:21.624Z,3884
2017-11-08T10:33:30.162Z,3844
2017-11-08T10:34:38.701Z,3532
2017-11-08T10:35:47.624Z,3344
2017-11-08T10:36:57.177Z,3300
2017-11-08T10:38:06.397Z,3256
2017-11-08T10:39:14.939Z,3272
2017-11-08T10:40:23.480Z,3240
2017-11-08T10:41:32.353Z,3012
2017-11-08T10:42:41.228Z,2720
2017-11-08T10:43:50.310Z,2528
2017-11-08T10:44:59.188Z,2440
2017-11-08T10:46:08.074Z,2568
2017-11-08T10:47:16.951Z,2888
2017-11-08T10:48:25.829Z,3044
2017-11-08T10:49:34.372Z,2872
2017-11-08T10:50:43.253Z,2572
2017-11-08T10:51:52.810Z,2248
2017-11-08T10:53:01.695Z,2128
2017-11-08T10:54:10.920Z,2328
2017-11-08T10:55:19.798Z,2804
2017-11-08T10:56:29.358Z,3384
2017-11-08T10:57:38.945Z,3852
2017-11-08T10:58:47.834Z,4212
2017-11-08T10:59:56.956Z,4472
2017-11-08T11:01:05.901Z,4588
2017-11-08T11:02:14.759Z,4612
2017-11-08T11:03:23.740Z,4300
2017-11-08T11:04:32.617Z,4536
2017-11-08T11:05:41.164Z,4592
2017-11-08T11:06:50.391Z,4424
2017-11-08T11:07:59.275Z,4140
2017-11-08T11:09:07.817Z,3976
2017-11-08T11:10:16.694Z,4108
2017-11-08T11:11:25.235Z,4228
2017-11-08T11:12:34.452Z,4128
2017-11-08T11:13:43.667Z,4136
2017-11-08T11:14:52.211Z,4464
2017-11-08T11:16:00.758Z,4676
2017-11-08T11:17:09.308Z,4948
2017-11-08T11:18:18.207Z,5156
2017-11-08T11:19:27.099Z,5188
2017-11-08T11:20:35.982Z,5416
2017-11-08T11:21:44.878Z,5444
2017-11-08T11:22:53.765Z,5536
2017-11-08T11:24:02.312Z,5776
2017-11-08T11:25:10.864Z,5660
2017-11-08T11:26:19.760Z,5240
2017-11-08T11:27:28.645Z,4796
2017-11-08T11:28:37.530Z,4788
2017-11-08T11:29:46.075Z,4848
2017-11-08T11:30:54.956Z,4752
2017-11-08T11:32:04.265Z,4848
2017-11-08T11:33:13.251Z,5024
2017-11-08T11:34:22.135Z,4880
2017-11-08T11:35:31.012Z,4724
2017-11-08T11:36:39.554Z,4848
2017-11-08T11:37:48.100Z,4924
2017-11-08T11:38:56.990Z,4832
2017-11-08T11:40:06.218Z,4700
2017-11-08T11:41:15.497Z,4184
2017-11-08T11:42:24.392Z,4036
2017-11-08T11:43:33.224Z,4120
2017-11-08T11:44:42.115Z,3972
2017-11-08T11:45:51.000Z,4092
2017-11-08T11:46:59.698Z,4168
2017-11-08T11:48:08.590Z,4104
2017-11-08T11:49:17.804Z,4132
2017-11-08T11:50:26.352Z,4248
2017-11-08T11:51:34.897Z,4228
2017-11-08T11:52:43.779Z,4516
2017-11-08T11:53:52.753Z,4376
2017-11-08T11:55:02.000Z,4292
2017-11-08T11:56:10.541Z,4160
2017-11-08T11:57:19.786Z,3940
2017-11-08T11:58:29.348Z,4044
2017-11-08T11:59:38.261Z,4124
2017-11-08T12:00:46.800Z,3952
2017-11-08T12:01:55.346Z,3592
2017-11-08T12:03:04.230Z,3332
2017-11-08T12:04:13.110Z,3160
2017-11-08T12:05:21.647Z,3000
2017-11-08T12:06:30.199Z,2940
2017-11-08T12:07:39.087Z,3012
2017-11-08T12:08:47.967Z,3064
2017-11-08T12:09:56.854Z,3152
2017-11-08T12:11:05.729Z,3144
2017-11-08T12:12:14.272Z,3152
2017-11-08T12:13:22.813Z,3048
2017-11-08T12:14:32.063Z,2864
2017-11-08T12:15:41.397Z,2952
2017-11-08T12:16:50.430Z,2936
2017-11-08T12:17:58.975Z,2772
2017-11-08T12:19:07.866Z,2820
2017-11-08T12:20:16.804Z,2808
2017-11-08T12:21:26.428Z,2664
2017-11-08T12:22:36.042Z,2520
2017-11-08T12:23:44.673Z,2344
2017-11-08T12:24:53.549Z,2288
2017-11-08T12:26:02.092Z,2192
2017-11-08T12:27:10.632Z,2324
2017-11-08T12:28:19.660Z,2212
2017-11-08T12:29:29.132Z,2152
2017-11-08T12:30:38.366Z,2228
2017-11-08T12:31:46.910Z,2232
2017-11-08T12:32:56.130Z,2220
2017-11-08T12:34:04.768Z,2288
2017-11-08T12:35:13.897Z,2180
2017-11-08T12:36:22.773Z,2208
2017-11-08T12:37:31.703Z,2196
2017-11-08T12:38:40.246Z,2344
2017-11-08T12:39:50.164Z,2328
2017-11-08T12:40:59.048Z,2164
2017-11-08T12:42:08.271Z,2012
2017-11-08T12:43:16.812Z,2208
2017-11-08T12:44:25.764Z,2320
2017-11-08T12:45:34.312Z,2224
2017-11-08T12:46:43.200Z,2444
2017-11-08T12:47:51.747Z,2488
2017-11-08T12:49:00.632Z,2432
2017-11-08T12:50:09.168Z,2416
2017-11-08T12:51:17.713Z,2444
2017-11-08T12:52:26.938Z,2544
2017-11-08T12:53:36.160Z,2452
2017-11-08T12:54:45.042Z,2440
2017-11-08T12:55:53.581Z,2688
2017-11-08T12:57:02.468Z,2788
2017-11-08T12:58:11.008Z,2668
2017-11-08T12:59:19.554Z,2660
2017-11-08T13:00:28.431Z,2696
2017-11-08T13:01:37.647Z,2824
2017-11-08T13:02:46.527Z,2788
2017-11-08T13:03:55.756Z,2944
2017-11-08T13:05:04.634Z,2856
2017-11-08T13:06:13.523Z,3020
2017-11-08T13:07:22.076Z,3084
2017-11-08T13:08:30.955Z,2936
2017-11-08T13:09:39.836Z,2796
2017-11-08T13:10:48.386Z,2544
2017-11-08T13:11:57.260Z,2688
2017-11-08T13:13:06.138Z,2760
2017-11-08T13:14:14.680Z,2584
2017-11-08T13:15:23.566Z,2372
2017-11-08T13:16:32.785Z,2252
2017-11-08T13:17:41.670Z,2084
2017-11-08T13:18:50.556Z,2004
2017-11-08T13:20:00.135Z,2088
2017-11-08T13:21:09.013Z,2292
2017-11-08T13:22:17.895Z,2284
2017-11-08T13:23:26.445Z,2288
2017-11-08T13:24:35.328Z,2224
2017-11-08T13:25:43.880Z,2152
2017-11-08T13:26:52.423Z,1896
2017-11-08T13:28:00.994Z,2020
2017-11-08T13:29:09.538Z,1936
2017-11-08T13:30:18.423Z,1736
2017-11-08T13:31:27.642Z,1824
2017-11-08T13:32:36.179Z,1756
2017-11-08T13:33:44.726Z,1904
2017-11-08T13:34:53.618Z,2076
2017-11-08T13:36:02.865Z,2060
2017-11-08T13:37:11.757Z,2192
2017-11-08T13:38:20.640Z,2260
2017-11-08T13:39:30.201Z,2184
2017-11-08T13:40:39.144Z,2056
2017-11-08T13:41:48.025Z,1844
2017-11-08T13:42:57.245Z,1556
2017-11-08T13:44:06.146Z,1552
2017-11-08T13:45:14.686Z,1644
2017-11-08T13:46:23.564Z,1772
2017-11-08T13:47:32.509Z,1820
2017-11-08T13:48:41.525Z,1860
2017-11-08T13:49:50.751Z,2004
2017-11-08T13:50:59.636Z,2160
2017-11-08T13:52:08.232Z,2260
2017-11-08T13:53:17.785Z,2108
2017-11-08T13:54:26.665Z,2072
2017-11-08T13:55:35.551Z,2040
2017-11-08T13:56:44.769Z,2140
2017-11-08T13:57:53.643Z,2164
2017-11-08T13:59:02.526Z,2232
2017-11-08T14:00:11.413Z,2436
2017-11-08T14:01:20.287Z,2672
2017-11-08T14:02:29.701Z,2884
2017-11-08T14:03:38.249Z,2940
2017-11-08T14:04:47.483Z,2820
2017-11-08T14:05:56.098Z,2724
2017-11-08T14:07:04.987Z,2640
2017-11-08T14:08:13.526Z,2564
2017-11-08T14:09:22.617Z,2424
2017-11-08T14:10:31.606Z,2256
2017-11-08T14:11:40.525Z,2128
2017-11-08T14:12:49.742Z,1996
2017-11-08T14:13:58.279Z,1804
2017-11-08T14:15:07.162Z,1656
2017-11-08T14:16:16.382Z,1512
2017-11-08T14:17:25.381Z,1396
2017-11-08T14:18:34.267Z,1388
2017-11-08T14:19:43.491Z,1376
2017-11-08T14:20:52.379Z,1328
2017-11-08T14:22:00.918Z,1268
2017-11-08T14:23:09.800Z,1288
2017-11-08T14:24:18.387Z,1288
2017-11-08T14:25:26.933Z,1416
2017-11-08T14:26:35.472Z,1424
2017-11-08T14:27:44.013Z,1444
2017-11-08T14:28:53.013Z,1476
2017-11-08T14:30:01.557Z,1480
2017-11-08T14:31:10.097Z,1512
2017-11-08T14:32:19.497Z,1580
2017-11-08T14:33:28.375Z,1560
2017-11-08T14:34:36.918Z,1376
2017-11-08T14:35:45.468Z,1184
2017-11-08T14:36:54.443Z,1056
2017-11-08T14:38:03.333Z,1048
2017-11-08T14:39:12.273Z,1068
2017-11-08T14:40:20.837Z,1072
2017-11-08T14:41:30.070Z,1064
2017-11-08T14:42:38.615Z,1076
2017-11-08T14:43:47.493Z,1100
2017-11-08T14:44:56.380Z,1056
2017-11-08T14:46:04.925Z,1136
2017-11-08T14:47:13.819Z,1176
2017-11-08T14:48:23.262Z,1184
2017-11-08T14:49:32.141Z,1172
2017-11-08T14:50:40.695Z,1144
2017-11-08T14:51:50.269Z,1128
2017-11-08T14:52:58.804Z,1128
2017-11-08T14:54:07.689Z,1156
2017-11-08T14:55:16.580Z,1128
2017-11-08T14:56:25.813Z,1080
2017-11-08T14:57:34.702Z,1028
2017-11-08T14:58:43.588Z,980
2017-11-08T14:59:52.830Z,916
2017-11-08T15:01:02.394Z,856
2017-11-08T15:02:11.279Z,828
2017-11-08T15:03:20.160Z,848
2017-11-08T15:04:29.047Z,800
2017-11-08T15:05:37.936Z,740
2017-11-08T15:06:46.536Z,728
2017-11-08T15:07:55.412Z,688
2017-11-08T15:09:03.961Z,652
2017-11-08T15:10:12.512Z,604
2017-11-08T15:11:21.736Z,628
2017-11-08T15:12:30.622Z,652
2017-11-08T15:13:39.844Z,636
2017-11-08T15:14:50.073Z,608
2017-11-08T15:15:59.323Z,576
2017-11-08T15:17:08.207Z,540
2017-11-08T15:18:17.089Z,504
2017-11-08T15:19:26.665Z,484
2017-11-08T15:20:35.892Z,460
2017-11-08T15:21:44.436Z,440
2017-11-08T15:22:53.995Z,416
2017-11-08T15:24:02.886Z,388
2017-11-08T15:25:11.766Z,364
2017-11-08T15:26:20.308Z,348
2017-11-08T15:27:29.197Z,336
2017-11-08T15:28:38.755Z,324
2017-11-08T15:29:47.628Z,308
2017-11-08T15:30:56.514Z,304
2017-11-08T15:32:05.057Z,296
2017-11-08T15:33:13.939Z,284
2017-11-08T15:34:23.152Z,264
2017-11-08T15:35:31.697Z,244
2017-11-08T15:36:40.636Z,232
2017-11-08T15:37:49.519Z,212
2017-11-08T15:38:58.068Z,208
2017-11-08T15:40:07.541Z,200
2017-11-08T15:41:16.188Z,192
2017-11-08T15:42:25.075Z,184
2017-11-08T15:43:34.015Z,180
2017-11-08T15:44:42.898Z,176
2017-11-08T15:45:51.439Z,172
2017-11-08T15:46:59.977Z,160
2017-11-08T15:48:08.859Z,152
2017-11-08T15:49:43.574Z,144
2017-11-08T15:50:52.115Z,136
2017-11-08T15:52:00.994Z,128
2017-11-08T15:53:10.238Z,128
2017-11-08T15:54:20.160Z,120
2017-11-08T15:55:29.033Z,120
2017-11-08T15:56:37.914Z,112
2017-11-08T15:57:47.134Z,108
2017-11-08T15:58:56.014Z,108
2017-11-08T16:00:04.551Z,104
2017-11-08T16:01:13.433Z,100
2017-11-08T16:02:22.673Z,96
2017-11-08T16:03:31.210Z,96
2017-11-08T16:04:40.462Z,92
2017-11-08T16:05:49.362Z,92